sensor_id;sensor_type;location;lat;lon;timestamp;temperature;humidity
32809;DHT22;19159;48.178;16.386;2024-02-23T00:01:50;14.80;90.90
32809;DHT22;19159;48.178;16.386;2024-02-23T00:04:16;14.80;90.90
32809;DHT22;19159;48.178;16.386;2024-02-23T00:06:41;14.80;90.90
32809;DHT22;19159;48.178;16.386;2024-02-23T00:09:07;14.80;90.90
32809;DHT22;19159;48.178;16.386;2024-02-23T00:11:33;14.90;90.80
32809;DHT22;19159;48.178;16.386;2024-02-23T00:13:59;14.90;90.70
32809;DHT22;19159;48.178;16.386;2024-02-23T00:16:25;14.80;90.70
32809;DHT22;19159;48.178;16.386;2024-02-23T00:18:52;14.80;90.70
32809;DHT22;19159;48.178;16.386;2024-02-23T00:21:18;14.80;90.80
32809;DHT22;19159;48.178;16.386;2024-02-23T00:23:43;14.80;90.80
32809;DHT22;19159;48.178;16.386;2024-02-23T00:26:09;14.80;90.80
32809;DHT22;19159;48.178;16.386;2024-02-23T00:28:35;14.80;90.70
32809;DHT22;19159;48.178;16.386;2024-02-23T00:31:00;14.80;90.80
32809;DHT22;19159;48.178;16.386;2024-02-23T00:33:26;14.80;90.80
32809;DHT22;19159;48.178;16.386;2024-02-23T00:35:51;14.80;90.70
32809;DHT22;19159;48.178;16.386;2024-02-23T00:38:17;14.80;90.70
32809;DHT22;19159;48.178;16.386;2024-02-23T00:40:43;14.90;90.70
32809;DHT22;19159;48.178;16.386;2024-02-23T00:43:09;14.90;90.70
32809;DHT22;19159;48.178;16.386;2024-02-23T00:45:35;14.90;90.60
32809;DHT22;19159;48.178;16.386;2024-02-23T00:48:00;14.90;90.60
32809;DHT22;19159;48.178;16.386;2024-02-23T00:50:26;14.90;90.50
32809;DHT22;19159;48.178;16.386;2024-02-23T00:52:53;14.90;90.50
32809;DHT22;19159;48.178;16.386;2024-02-23T00:55:19;14.90;90.60
32809;DHT22;19159;48.178;16.386;2024-02-23T00:57:45;14.80;90.60
32809;DHT22;19159;48.178;16.386;2024-02-23T01:00:11;14.90;90.70
32809;DHT22;19159;48.178;16.386;2024-02-23T01:02:38;14.90;90.70
32809;DHT22;19159;48.178;16.386;2024-02-23T01:05:04;14.90;90.60
32809;DHT22;19159;48.178;16.386;2024-02-23T01:07:30;14.90;90.60
32809;DHT22;19159;48.178;16.386;2024-02-23T01:09:56;14.90;90.60
32809;DHT22;19159;48.178;16.386;2024-02-23T01:12:22;15.00;90.60
32809;DHT22;19159;48.178;16.386;2024-02-23T01:14:47;15.00;90.60
32809;DHT22;19159;48.178;16.386;2024-02-23T01:17:14;15.00;90.60
32809;DHT22;19159;48.178;16.386;2024-02-23T01:19:41;15.00;90.60
32809;DHT22;19159;48.178;16.386;2024-02-23T01:22:08;14.90;90.70
32809;DHT22;19159;48.178;16.386;2024-02-23T01:24:33;14.90;90.80
32809;DHT22;19159;48.178;16.386;2024-02-23T01:26:59;14.90;90.80
32809;DHT22;19159;48.178;16.386;2024-02-23T01:29:26;14.80;90.80
32809;DHT22;19159;48.178;16.386;2024-02-23T01:31:52;14.80;90.90
32809;DHT22;19159;48.178;16.386;2024-02-23T01:34:20;14.80;91.00
32809;DHT22;19159;48.178;16.386;2024-02-23T01:36:45;14.80;90.90
32809;DHT22;19159;48.178;16.386;2024-02-23T01:39:11;14.80;90.90
32809;DHT22;19159;48.178;16.386;2024-02-23T01:41:37;14.90;90.90
32809;DHT22;19159;48.178;16.386;2024-02-23T01:44:03;14.90;90.80
32809;DHT22;19159;48.178;16.386;2024-02-23T01:46:28;14.90;90.80
32809;DHT22;19159;48.178;16.386;2024-02-23T01:48:54;14.90;90.80
32809;DHT22;19159;48.178;16.386;2024-02-23T01:51:20;14.90;90.80
32809;DHT22;19159;48.178;16.386;2024-02-23T01:53:47;14.90;90.80
32809;DHT22;19159;48.178;16.386;2024-02-23T01:56:13;14.90;90.80
32809;DHT22;19159;48.178;16.386;2024-02-23T01:58:43;14.90;90.90
32809;DHT22;19159;48.178;16.386;2024-02-23T02:01:09;14.90;90.90
32809;DHT22;19159;48.178;16.386;2024-02-23T02:03:36;14.90;90.90
32809;DHT22;19159;48.178;16.386;2024-02-23T02:06:02;14.90;90.90
32809;DHT22;19159;48.178;16.386;2024-02-23T02:08:28;14.90;90.90
32809;DHT22;19159;48.178;16.386;2024-02-23T02:10:53;14.90;90.90
32809;DHT22;19159;48.178;16.386;2024-02-23T02:13:19;14.90;91.00
32809;DHT22;19159;48.178;16.386;2024-02-23T02:15:45;14.90;91.00
32809;DHT22;19159;48.178;16.386;2024-02-23T02:18:10;14.90;91.00
32809;DHT22;19159;48.178;16.386;2024-02-23T02:20:36;14.90;91.10
32809;DHT22;19159;48.178;16.386;2024-02-23T02:23:03;14.90;91.10
32809;DHT22;19159;48.178;16.386;2024-02-23T02:25:28;14.90;91.10
32809;DHT22;19159;48.178;16.386;2024-02-23T02:27:54;14.90;91.10
32809;DHT22;19159;48.178;16.386;2024-02-23T02:30:20;14.90;91.10
32809;DHT22;19159;48.178;16.386;2024-02-23T02:32:45;14.90;91.10
32809;DHT22;19159;48.178;16.386;2024-02-23T02:35:12;14.90;91.00
32809;DHT22;19159;48.178;16.386;2024-02-23T02:37:38;14.90;91.00
32809;DHT22;19159;48.178;16.386;2024-02-23T02:40:04;14.90;91.10
32809;DHT22;19159;48.178;16.386;2024-02-23T02:42:30;14.80;91.20
32809;DHT22;19159;48.178;16.386;2024-02-23T02:44:56;14.80;91.30
32809;DHT22;19159;48.178;16.386;2024-02-23T02:47:22;14.80;91.30
32809;DHT22;19159;48.178;16.386;2024-02-23T02:49:48;14.80;91.20
32809;DHT22;19159;48.178;16.386;2024-02-23T02:52:14;14.80;91.30
32809;DHT22;19159;48.178;16.386;2024-02-23T02:54:40;14.80;91.30
32809;DHT22;19159;48.178;16.386;2024-02-23T02:57:05;14.90;91.30
32809;DHT22;19159;48.178;16.386;2024-02-23T02:59:34;14.80;91.40
32809;DHT22;19159;48.178;16.386;2024-02-23T03:02:01;14.80;91.40
32809;DHT22;19159;48.178;16.386;2024-02-23T03:04:26;14.90;91.40
32809;DHT22;19159;48.178;16.386;2024-02-23T03:06:52;14.80;91.50
32809;DHT22;19159;48.178;16.386;2024-02-23T03:09:18;14.80;91.60
32809;DHT22;19159;48.178;16.386;2024-02-23T03:11:43;14.80;91.70
32809;DHT22;19159;48.178;16.386;2024-02-23T03:14:09;14.70;91.80
32809;DHT22;19159;48.178;16.386;2024-02-23T03:16:35;14.70;91.90
32809;DHT22;19159;48.178;16.386;2024-02-23T03:19:02;14.70;92.00
32809;DHT22;19159;48.178;16.386;2024-02-23T03:21:28;14.70;92.10
32809;DHT22;19159;48.178;16.386;2024-02-23T03:23:54;14.70;92.20
32809;DHT22;19159;48.178;16.386;2024-02-23T03:26:20;14.70;92.40
32809;DHT22;19159;48.178;16.386;2024-02-23T03:28:46;14.70;92.40
32809;DHT22;19159;48.178;16.386;2024-02-23T03:31:12;14.70;92.40
32809;DHT22;19159;48.178;16.386;2024-02-23T03:33:37;14.70;92.70
32809;DHT22;19159;48.178;16.386;2024-02-23T03:36:03;14.80;92.50
32809;DHT22;19159;48.178;16.386;2024-02-23T03:38:29;14.70;92.50
32809;DHT22;19159;48.178;16.386;2024-02-23T03:40:55;14.80;92.60
32809;DHT22;19159;48.178;16.386;2024-02-23T03:43:21;14.70;92.60
32809;DHT22;19159;48.178;16.386;2024-02-23T03:45:47;14.70;92.80
32809;DHT22;19159;48.178;16.386;2024-02-23T03:48:13;14.40;93.60
32809;DHT22;19159;48.178;16.386;2024-02-23T03:50:39;14.10;93.80
32809;DHT22;19159;48.178;16.386;2024-02-23T03:53:04;13.90;94.20
32809;DHT22;19159;48.178;16.386;2024-02-23T03:55:30;13.70;94.60
32809;DHT22;19159;48.178;16.386;2024-02-23T03:57:55;13.60;94.70
32809;DHT22;19159;48.178;16.386;2024-02-23T04:00:21;13.60;94.90
32809;DHT22;19159;48.178;16.386;2024-02-23T04:02:49;13.50;95.00
32809;DHT22;19159;48.178;16.386;2024-02-23T04:05:14;13.50;95.00
32809;DHT22;19159;48.178;16.386;2024-02-23T04:07:40;13.40;95.20
32809;DHT22;19159;48.178;16.386;2024-02-23T04:10:06;13.20;95.40
32809;DHT22;19159;48.178;16.386;2024-02-23T04:12:32;13.00;96.10
32809;DHT22;19159;48.178;16.386;2024-02-23T04:14:58;12.80;96.80
32809;DHT22;19159;48.178;16.386;2024-02-23T04:17:24;12.60;97.30
32809;DHT22;19159;48.178;16.386;2024-02-23T04:19:49;12.60;97.60
32809;DHT22;19159;48.178;16.386;2024-02-23T04:22:15;12.50;97.90
32809;DHT22;19159;48.178;16.386;2024-02-23T04:24:41;12.40;98.00
32809;DHT22;19159;48.178;16.386;2024-02-23T04:27:07;12.60;97.90
32809;DHT22;19159;48.178;16.386;2024-02-23T04:29:34;12.60;97.70
32809;DHT22;19159;48.178;16.386;2024-02-23T04:32:00;12.70;97.60
32809;DHT22;19159;48.178;16.386;2024-02-23T04:34:27;12.60;97.50
32809;DHT22;19159;48.178;16.386;2024-02-23T04:36:53;12.50;97.70
32809;DHT22;19159;48.178;16.386;2024-02-23T04:39:19;12.50;97.90
32809;DHT22;19159;48.178;16.386;2024-02-23T04:41:45;12.50;98.00
32809;DHT22;19159;48.178;16.386;2024-02-23T04:44:11;12.50;98.10
32809;DHT22;19159;48.178;16.386;2024-02-23T04:46:36;12.60;98.00
32809;DHT22;19159;48.178;16.386;2024-02-23T04:49:02;12.60;97.90
32809;DHT22;19159;48.178;16.386;2024-02-23T04:51:28;12.60;97.80
32809;DHT22;19159;48.178;16.386;2024-02-23T04:53:53;12.50;97.70
32809;DHT22;19159;48.178;16.386;2024-02-23T04:56:19;12.50;97.90
32809;DHT22;19159;48.178;16.386;2024-02-23T04:58:46;12.60;97.70
32809;DHT22;19159;48.178;16.386;2024-02-23T05:01:12;12.60;97.70
32809;DHT22;19159;48.178;16.386;2024-02-23T05:03:38;12.60;97.50
32809;DHT22;19159;48.178;16.386;2024-02-23T05:06:04;12.60;97.20
32809;DHT22;19159;48.178;16.386;2024-02-23T05:08:30;12.60;97.40
32809;DHT22;19159;48.178;16.386;2024-02-23T05:10:57;12.60;97.40
32809;DHT22;19159;48.178;16.386;2024-02-23T05:13:23;12.40;97.30
32809;DHT22;19159;48.178;16.386;2024-02-23T05:15:48;12.50;97.50
32809;DHT22;19159;48.178;16.386;2024-02-23T05:18:14;12.50;97.30
32809;DHT22;19159;48.178;16.386;2024-02-23T05:20:40;12.50;97.30
32809;DHT22;19159;48.178;16.386;2024-02-23T05:23:05;12.70;97.20
32809;DHT22;19159;48.178;16.386;2024-02-23T05:25:31;12.80;97.10
32809;DHT22;19159;48.178;16.386;2024-02-23T05:27:57;12.90;96.90
32809;DHT22;19159;48.178;16.386;2024-02-23T05:30:22;12.80;96.60
32809;DHT22;19159;48.178;16.386;2024-02-23T05:32:48;12.80;96.80
32809;DHT22;19159;48.178;16.386;2024-02-23T05:35:14;12.80;97.10
32809;DHT22;19159;48.178;16.386;2024-02-23T05:37:41;12.80;97.00
32809;DHT22;19159;48.178;16.386;2024-02-23T05:40:07;12.90;97.00
32809;DHT22;19159;48.178;16.386;2024-02-23T05:42:39;12.90;97.00
32809;DHT22;19159;48.178;16.386;2024-02-23T05:45:06;12.80;97.00
32809;DHT22;19159;48.178;16.386;2024-02-23T05:47:40;12.80;97.20
32809;DHT22;19159;48.178;16.386;2024-02-23T05:50:08;12.80;97.20
32809;DHT22;19159;48.178;16.386;2024-02-23T05:52:35;12.90;97.20
32809;DHT22;19159;48.178;16.386;2024-02-23T05:55:02;12.90;97.00
32809;DHT22;19159;48.178;16.386;2024-02-23T05:57:28;13.00;97.00
32809;DHT22;19159;48.178;16.386;2024-02-23T05:59:54;13.00;96.70
32809;DHT22;19159;48.178;16.386;2024-02-23T06:02:23;13.10;96.60
32809;DHT22;19159;48.178;16.386;2024-02-23T06:04:49;13.10;96.50
32809;DHT22;19159;48.178;16.386;2024-02-23T06:07:15;13.10;96.30
32809;DHT22;19159;48.178;16.386;2024-02-23T06:09:44;13.10;96.10
32809;DHT22;19159;48.178;16.386;2024-02-23T06:12:10;13.10;95.60
32809;DHT22;19159;48.178;16.386;2024-02-23T06:14:36;12.80;95.60
32809;DHT22;19159;48.178;16.386;2024-02-23T06:17:02;12.90;95.70
32809;DHT22;19159;48.178;16.386;2024-02-23T06:19:28;12.80;95.10
32809;DHT22;19159;48.178;16.386;2024-02-23T06:21:54;12.70;95.30
32809;DHT22;19159;48.178;16.386;2024-02-23T06:24:19;12.90;95.30
32809;DHT22;19159;48.178;16.386;2024-02-23T06:26:45;13.00;95.10
32809;DHT22;19159;48.178;16.386;2024-02-23T06:29:12;13.10;94.90
32809;DHT22;19159;48.178;16.386;2024-02-23T06:31:39;13.10;94.70
32809;DHT22;19159;48.178;16.386;2024-02-23T06:34:05;13.10;94.40
32809;DHT22;19159;48.178;16.386;2024-02-23T06:36:31;13.20;94.40
32809;DHT22;19159;48.178;16.386;2024-02-23T06:38:57;13.20;94.30
32809;DHT22;19159;48.178;16.386;2024-02-23T06:41:23;13.20;94.20
32809;DHT22;19159;48.178;16.386;2024-02-23T06:43:48;13.20;94.00
32809;DHT22;19159;48.178;16.386;2024-02-23T06:46:14;13.10;94.00
32809;DHT22;19159;48.178;16.386;2024-02-23T06:48:40;13.00;93.90
32809;DHT22;19159;48.178;16.386;2024-02-23T06:51:06;12.90;93.60
32809;DHT22;19159;48.178;16.386;2024-02-23T06:53:35;12.90;93.80
32809;DHT22;19159;48.178;16.386;2024-02-23T06:56:00;13.00;93.80
32809;DHT22;19159;48.178;16.386;2024-02-23T06:58:27;13.00;93.60
32809;DHT22;19159;48.178;16.386;2024-02-23T07:00:52;13.10;93.60
32809;DHT22;19159;48.178;16.386;2024-02-23T07:03:18;13.30;93.60
32809;DHT22;19159;48.178;16.386;2024-02-23T07:05:43;13.40;93.50
32809;DHT22;19159;48.178;16.386;2024-02-23T07:08:10;13.50;93.30
32809;DHT22;19159;48.178;16.386;2024-02-23T07:10:36;13.60;93.30
32809;DHT22;19159;48.178;16.386;2024-02-23T07:13:03;13.70;93.30
32809;DHT22;19159;48.178;16.386;2024-02-23T07:15:28;13.70;93.00
32809;DHT22;19159;48.178;16.386;2024-02-23T07:17:55;13.70;92.70
32809;DHT22;19159;48.178;16.386;2024-02-23T07:20:21;13.70;92.50
32809;DHT22;19159;48.178;16.386;2024-02-23T07:22:47;13.70;92.60
32809;DHT22;19159;48.178;16.386;2024-02-23T07:25:17;13.70;92.50
32809;DHT22;19159;48.178;16.386;2024-02-23T07:27:44;13.70;92.40
32809;DHT22;19159;48.178;16.386;2024-02-23T07:30:11;13.80;92.20
32809;DHT22;19159;48.178;16.386;2024-02-23T07:32:37;13.90;92.20
32809;DHT22;19159;48.178;16.386;2024-02-23T07:35:03;13.80;92.00
32809;DHT22;19159;48.178;16.386;2024-02-23T07:37:29;13.70;92.00
32809;DHT22;19159;48.178;16.386;2024-02-23T07:39:55;13.90;92.00
32809;DHT22;19159;48.178;16.386;2024-02-23T07:42:21;14.00;91.90
32809;DHT22;19159;48.178;16.386;2024-02-23T07:44:47;14.10;92.30
32809;DHT22;19159;48.178;16.386;2024-02-23T07:47:12;14.10;91.70
32809;DHT22;19159;48.178;16.386;2024-02-23T07:49:38;14.10;91.80
32809;DHT22;19159;48.178;16.386;2024-02-23T07:52:06;14.20;91.70
32809;DHT22;19159;48.178;16.386;2024-02-23T07:54:32;14.20;91.70
32809;DHT22;19159;48.178;16.386;2024-02-23T07:57:01;14.30;91.60
32809;DHT22;19159;48.178;16.386;2024-02-23T07:59:30;14.40;91.60
32809;DHT22;19159;48.178;16.386;2024-02-23T08:01:55;14.40;91.60
32809;DHT22;19159;48.178;16.386;2024-02-23T08:04:21;14.50;91.60
32809;DHT22;19159;48.178;16.386;2024-02-23T08:06:47;14.50;91.80
32809;DHT22;19159;48.178;16.386;2024-02-23T08:09:14;14.50;91.40
32809;DHT22;19159;48.178;16.386;2024-02-23T08:11:39;14.50;91.50
32809;DHT22;19159;48.178;16.386;2024-02-23T08:14:05;14.60;91.40
32809;DHT22;19159;48.178;16.386;2024-02-23T08:16:31;14.60;91.40
32809;DHT22;19159;48.178;16.386;2024-02-23T08:18:56;14.70;91.50
32809;DHT22;19159;48.178;16.386;2024-02-23T08:21:22;14.70;91.40
32809;DHT22;19159;48.178;16.386;2024-02-23T08:23:48;14.70;91.50
32809;DHT22;19159;48.178;16.386;2024-02-23T08:26:13;14.70;91.60
32809;DHT22;19159;48.178;16.386;2024-02-23T08:28:40;14.70;91.60
32809;DHT22;19159;48.178;16.386;2024-02-23T08:31:06;14.80;91.60
32809;DHT22;19159;48.178;16.386;2024-02-23T08:33:31;14.90;91.60
32809;DHT22;19159;48.178;16.386;2024-02-23T08:35:57;14.90;91.60
32809;DHT22;19159;48.178;16.386;2024-02-23T08:38:23;15.00;91.50
32809;DHT22;19159;48.178;16.386;2024-02-23T08:40:48;15.00;91.50
32809;DHT22;19159;48.178;16.386;2024-02-23T08:43:15;15.10;91.60
32809;DHT22;19159;48.178;16.386;2024-02-23T08:45:41;15.10;91.50
32809;DHT22;19159;48.178;16.386;2024-02-23T08:48:07;15.20;91.40
32809;DHT22;19159;48.178;16.386;2024-02-23T08:50:33;15.20;91.40
32809;DHT22;19159;48.178;16.386;2024-02-23T08:53:00;15.30;91.40
32809;DHT22;19159;48.178;16.386;2024-02-23T08:55:25;15.30;91.10
32809;DHT22;19159;48.178;16.386;2024-02-23T08:57:51;15.30;91.00
32809;DHT22;19159;48.178;16.386;2024-02-23T09:00:17;15.30;91.00
32809;DHT22;19159;48.178;16.386;2024-02-23T09:02:43;15.40;91.00
32809;DHT22;19159;48.178;16.386;2024-02-23T09:05:09;15.50;91.00
32809;DHT22;19159;48.178;16.386;2024-02-23T09:07:35;15.50;90.80
32809;DHT22;19159;48.178;16.386;2024-02-23T09:10:01;15.50;90.80
32809;DHT22;19159;48.178;16.386;2024-02-23T09:12:27;15.60;90.70
32809;DHT22;19159;48.178;16.386;2024-02-23T09:14:52;15.50;90.30
32809;DHT22;19159;48.178;16.386;2024-02-23T09:17:18;15.50;90.20
32809;DHT22;19159;48.178;16.386;2024-02-23T09:19:46;15.50;90.20
32809;DHT22;19159;48.178;16.386;2024-02-23T09:22:11;15.50;90.20
32809;DHT22;19159;48.178;16.386;2024-02-23T09:24:40;15.40;90.10
32809;DHT22;19159;48.178;16.386;2024-02-23T09:27:06;15.40;90.20
32809;DHT22;19159;48.178;16.386;2024-02-23T09:29:33;15.40;90.20
32809;DHT22;19159;48.178;16.386;2024-02-23T09:31:58;15.50;90.30
32809;DHT22;19159;48.178;16.386;2024-02-23T09:34:25;15.50;90.20
32809;DHT22;19159;48.178;16.386;2024-02-23T09:36:51;15.50;90.20
32809;DHT22;19159;48.178;16.386;2024-02-23T09:39:17;15.50;90.00
32809;DHT22;19159;48.178;16.386;2024-02-23T09:41:43;15.50;89.80
32809;DHT22;19159;48.178;16.386;2024-02-23T09:44:09;15.40;89.60
32809;DHT22;19159;48.178;16.386;2024-02-23T09:46:36;15.40;89.60
32809;DHT22;19159;48.178;16.386;2024-02-23T09:49:03;15.50;89.70
32809;DHT22;19159;48.178;16.386;2024-02-23T09:51:32;15.50;89.50
32809;DHT22;19159;48.178;16.386;2024-02-23T09:53:59;15.50;89.70
32809;DHT22;19159;48.178;16.386;2024-02-23T09:56:27;15.50;89.60
32809;DHT22;19159;48.178;16.386;2024-02-23T09:58:57;15.50;89.70
32809;DHT22;19159;48.178;16.386;2024-02-23T10:01:28;15.50;89.30
32809;DHT22;19159;48.178;16.386;2024-02-23T10:03:57;15.50;89.40
32809;DHT22;19159;48.178;16.386;2024-02-23T10:06:23;15.50;89.10
32809;DHT22;19159;48.178;16.386;2024-02-23T10:08:49;15.50;89.10
32809;DHT22;19159;48.178;16.386;2024-02-23T10:11:18;15.50;89.20
32809;DHT22;19159;48.178;16.386;2024-02-23T10:13:44;15.60;89.00
32809;DHT22;19159;48.178;16.386;2024-02-23T10:16:10;15.60;89.00
32809;DHT22;19159;48.178;16.386;2024-02-23T10:18:38;15.70;88.90
32809;DHT22;19159;48.178;16.386;2024-02-23T10:21:05;15.70;88.80
32809;DHT22;19159;48.178;16.386;2024-02-23T10:23:30;15.70;88.50
32809;DHT22;19159;48.178;16.386;2024-02-23T10:25:56;15.80;88.90
32809;DHT22;19159;48.178;16.386;2024-02-23T10:28:22;15.80;88.70
32809;DHT22;19159;48.178;16.386;2024-02-23T10:30:48;15.90;88.50
32809;DHT22;19159;48.178;16.386;2024-02-23T10:33:14;15.90;88.30
32809;DHT22;19159;48.178;16.386;2024-02-23T10:35:41;15.90;87.90
32809;DHT22;19159;48.178;16.386;2024-02-23T10:38:10;15.90;88.00
32809;DHT22;19159;48.178;16.386;2024-02-23T10:40:38;15.90;88.10
32809;DHT22;19159;48.178;16.386;2024-02-23T10:43:12;15.90;88.20
32809;DHT22;19159;48.178;16.386;2024-02-23T10:45:38;16.00;88.10
32809;DHT22;19159;48.178;16.386;2024-02-23T10:48:07;16.00;88.10
32809;DHT22;19159;48.178;16.386;2024-02-23T10:50:35;16.10;88.10
32809;DHT22;19159;48.178;16.386;2024-02-23T10:53:01;16.10;87.90
32809;DHT22;19159;48.178;16.386;2024-02-23T10:55:31;16.20;87.50
32809;DHT22;19159;48.178;16.386;2024-02-23T10:57:58;16.20;87.20
32809;DHT22;19159;48.178;16.386;2024-02-23T11:00:24;16.20;87.20
32809;DHT22;19159;48.178;16.386;2024-02-23T11:02:53;16.20;87.60
32809;DHT22;19159;48.178;16.386;2024-02-23T11:05:20;16.20;87.50
32809;DHT22;19159;48.178;16.386;2024-02-23T11:07:49;16.30;87.60
32809;DHT22;19159;48.178;16.386;2024-02-23T11:10:16;16.20;87.40
32809;DHT22;19159;48.178;16.386;2024-02-23T11:12:43;16.20;87.60
32809;DHT22;19159;48.178;16.386;2024-02-23T11:15:09;16.10;87.30
32809;DHT22;19159;48.178;16.386;2024-02-23T11:17:36;16.10;87.60
32809;DHT22;19159;48.178;16.386;2024-02-23T11:20:05;16.10;87.80
32809;DHT22;19159;48.178;16.386;2024-02-23T11:22:34;16.10;87.80
32809;DHT22;19159;48.178;16.386;2024-02-23T11:25:02;16.20;87.80
32809;DHT22;19159;48.178;16.386;2024-02-23T11:27:33;16.20;87.70
32809;DHT22;19159;48.178;16.386;2024-02-23T11:32:40;16.10;87.40
32809;DHT22;19159;48.178;16.386;2024-02-23T11:35:16;16.00;87.40
32809;DHT22;19159;48.178;16.386;2024-02-23T11:37:51;15.80;87.60
32809;DHT22;19159;48.178;16.386;2024-02-23T11:40:22;15.60;87.60
32809;DHT22;19159;48.178;16.386;2024-02-23T11:42:48;15.60;88.00
32809;DHT22;19159;48.178;16.386;2024-02-23T11:45:13;15.40;88.50
32809;DHT22;19159;48.178;16.386;2024-02-23T11:47:39;15.30;88.90
32809;DHT22;19159;48.178;16.386;2024-02-23T11:50:09;14.80;90.00
32809;DHT22;19159;48.178;16.386;2024-02-23T11:52:37;14.80;90.20
32809;DHT22;19159;48.178;16.386;2024-02-23T11:55:04;14.60;90.60
32809;DHT22;19159;48.178;16.386;2024-02-23T11:57:31;14.20;91.30
32809;DHT22;19159;48.178;16.386;2024-02-23T11:59:57;14.20;91.60
32809;DHT22;19159;48.178;16.386;2024-02-23T12:02:24;14.10;91.80
32809;DHT22;19159;48.178;16.386;2024-02-23T12:04:50;14.00;91.90
32809;DHT22;19159;48.178;16.386;2024-02-23T12:07:15;14.10;92.10
32809;DHT22;19159;48.178;16.386;2024-02-23T12:09:42;14.10;92.40
32809;DHT22;19159;48.178;16.386;2024-02-23T12:12:08;14.10;92.80
32809;DHT22;19159;48.178;16.386;2024-02-23T12:14:37;14.10;92.80
32809;DHT22;19159;48.178;16.386;2024-02-23T12:17:04;13.90;93.00
32809;DHT22;19159;48.178;16.386;2024-02-23T12:19:32;13.90;93.10
32809;DHT22;19159;48.178;16.386;2024-02-23T12:22:01;13.80;93.50
32809;DHT22;19159;48.178;16.386;2024-02-23T12:24:27;13.50;93.70
32809;DHT22;19159;48.178;16.386;2024-02-23T12:26:56;13.20;94.20
32809;DHT22;19159;48.178;16.386;2024-02-23T12:29:23;13.20;94.70
32809;DHT22;19159;48.178;16.386;2024-02-23T12:31:49;13.20;94.80
32809;DHT22;19159;48.178;16.386;2024-02-23T12:34:14;13.30;94.60
32809;DHT22;19159;48.178;16.386;2024-02-23T12:36:41;13.20;95.00
32809;DHT22;19159;48.178;16.386;2024-02-23T12:39:06;13.20;95.10
32809;DHT22;19159;48.178;16.386;2024-02-23T12:41:32;13.40;95.10
32809;DHT22;19159;48.178;16.386;2024-02-23T12:43:58;13.50;95.20
32809;DHT22;19159;48.178;16.386;2024-02-23T12:46:24;13.50;95.60
32809;DHT22;19159;48.178;16.386;2024-02-23T12:48:50;13.60;95.50
32809;DHT22;19159;48.178;16.386;2024-02-23T12:51:16;13.40;95.90
32809;DHT22;19159;48.178;16.386;2024-02-23T12:53:44;13.30;96.20
32809;DHT22;19159;48.178;16.386;2024-02-23T12:56:12;13.00;96.70
32809;DHT22;19159;48.178;16.386;2024-02-23T12:58:40;13.10;96.70
32809;DHT22;19159;48.178;16.386;2024-02-23T13:01:06;13.20;96.70
32809;DHT22;19159;48.178;16.386;2024-02-23T13:03:36;13.10;96.80
32809;DHT22;19159;48.178;16.386;2024-02-23T13:06:02;13.20;96.80
32809;DHT22;19159;48.178;16.386;2024-02-23T13:08:28;13.20;97.00
32809;DHT22;19159;48.178;16.386;2024-02-23T13:10:54;13.00;97.20
32809;DHT22;19159;48.178;16.386;2024-02-23T13:13:21;13.00;97.50
32809;DHT22;19159;48.178;16.386;2024-02-23T13:15:48;13.00;97.80
32809;DHT22;19159;48.178;16.386;2024-02-23T13:18:14;13.00;98.00
32809;DHT22;19159;48.178;16.386;2024-02-23T13:20:40;13.10;97.90
32809;DHT22;19159;48.178;16.386;2024-02-23T13:23:07;13.00;97.90
32809;DHT22;19159;48.178;16.386;2024-02-23T13:25:37;12.90;98.10
32809;DHT22;19159;48.178;16.386;2024-02-23T13:28:03;12.70;98.70
32809;DHT22;19159;48.178;16.386;2024-02-23T13:30:30;12.80;98.80
32809;DHT22;19159;48.178;16.386;2024-02-23T13:32:56;12.60;99.00
32809;DHT22;19159;48.178;16.386;2024-02-23T13:35:22;12.50;99.40
32809;DHT22;19159;48.178;16.386;2024-02-23T13:37:48;12.60;99.30
32809;DHT22;19159;48.178;16.386;2024-02-23T13:40:13;12.80;99.20
32809;DHT22;19159;48.178;16.386;2024-02-23T13:42:40;12.90;99.10
32809;DHT22;19159;48.178;16.386;2024-02-23T13:45:07;12.90;99.30
32809;DHT22;19159;48.178;16.386;2024-02-23T13:47:34;12.80;99.60
32809;DHT22;19159;48.178;16.386;2024-02-23T13:50:00;12.80;99.80
32809;DHT22;19159;48.178;16.386;2024-02-23T13:52:26;12.60;99.90
32809;DHT22;19159;48.178;16.386;2024-02-23T13:54:54;12.70;99.90
32809;DHT22;19159;48.178;16.386;2024-02-23T13:57:19;12.70;99.90
32809;DHT22;19159;48.178;16.386;2024-02-23T13:59:45;12.80;99.90
32809;DHT22;19159;48.178;16.386;2024-02-23T14:02:11;12.90;99.90
32809;DHT22;19159;48.178;16.386;2024-02-23T14:04:37;12.80;99.90
32809;DHT22;19159;48.178;16.386;2024-02-23T14:07:03;12.80;99.90
32809;DHT22;19159;48.178;16.386;2024-02-23T14:09:30;12.70;99.90
32809;DHT22;19159;48.178;16.386;2024-02-23T14:11:56;12.70;99.90
32809;DHT22;19159;48.178;16.386;2024-02-23T14:14:22;12.90;99.90
32809;DHT22;19159;48.178;16.386;2024-02-23T14:16:48;12.90;99.90
32809;DHT22;19159;48.178;16.386;2024-02-23T14:19:14;12.90;99.90
32809;DHT22;19159;48.178;16.386;2024-02-23T14:21:39;12.80;99.90
32809;DHT22;19159;48.178;16.386;2024-02-23T14:24:05;12.80;99.90
32809;DHT22;19159;48.178;16.386;2024-02-23T14:26:31;12.90;99.90
32809;DHT22;19159;48.178;16.386;2024-02-23T14:28:56;13.10;99.90
32809;DHT22;19159;48.178;16.386;2024-02-23T14:31:22;13.20;99.90
32809;DHT22;19159;48.178;16.386;2024-02-23T14:33:48;13.00;99.90
32809;DHT22;19159;48.178;16.386;2024-02-23T14:36:16;13.10;99.90
32809;DHT22;19159;48.178;16.386;2024-02-23T14:38:42;13.10;99.90
32809;DHT22;19159;48.178;16.386;2024-02-23T14:41:08;13.10;99.90
32809;DHT22;19159;48.178;16.386;2024-02-23T14:43:35;13.10;99.90
32809;DHT22;19159;48.178;16.386;2024-02-23T14:46:01;13.10;99.90
32809;DHT22;19159;48.178;16.386;2024-02-23T14:48:27;13.00;99.90
32809;DHT22;19159;48.178;16.386;2024-02-23T14:50:52;13.10;99.90
32809;DHT22;19159;48.178;16.386;2024-02-23T14:53:18;13.30;99.90
32809;DHT22;19159;48.178;16.386;2024-02-23T14:55:44;13.30;99.90
32809;DHT22;19159;48.178;16.386;2024-02-23T14:58:10;13.30;99.90
32809;DHT22;19159;48.178;16.386;2024-02-23T15:00:35;13.40;99.90
32809;DHT22;19159;48.178;16.386;2024-02-23T15:03:03;13.50;99.80
32809;DHT22;19159;48.178;16.386;2024-02-23T15:05:28;13.60;99.50
32809;DHT22;19159;48.178;16.386;2024-02-23T15:07:55;13.60;99.40
32809;DHT22;19159;48.178;16.386;2024-02-23T15:10:21;13.50;99.20
32809;DHT22;19159;48.178;16.386;2024-02-23T15:12:46;13.60;99.00